Time;durP1;ratioP1;P1;durP2;ratioP2;P2;SDS_P1;SDS_P2;PMS_P1;PMS_P2;Temp;Humidity;BMP_temperature;BMP_pressure;BME280_temperature;BME280_humidity;BME280_pressure;Samples;Min_cycle;Max_cycle;Signal;HPM_P1;HPM_P2
2023/11/06 00:00:38;;;;;;;3.75;0.80;;;;;;;19.56;48.36;99282.28;5047878;28;20021;-68
2023/11/06 00:03:03;;;;;;;2.78;0.80;;;;;;;19.57;48.34;99285.78;5047729;28;20021;-69
2023/11/06 00:05:29;;;;;;;4.35;1.00;;;;;;;19.54;48.49;99292.22;5047565;28;20043;-69
2023/11/06 00:07:54;;;;;;;3.00;0.90;;;;;;;19.54;48.19;99288.75;5047591;28;20394;-70
2023/11/06 00:10:19;;;;;;;3.25;0.70;;;;;;;19.51;48.32;99291.75;5029373;28;20044;-70
2023/11/06 00:12:45;;;;;;;3.20;0.80;;;;;;;19.52;48.52;99296.03;5047719;28;20028;-69
2023/11/06 00:15:13;;;;;;;2.85;1.00;;;;;;;19.49;48.12;99296.38;5047506;28;20107;-69
2023/11/06 00:17:39;;;;;;;2.50;0.93;;;;;;;19.50;48.25;99300.66;5047408;28;20074;-68
2023/11/06 00:20:10;;;;;;;3.30;0.77;;;;;;;19.47;48.16;99312.41;5046625;28;20028;-69
2023/11/06 00:22:36;;;;;;;2.53;0.80;;;;;;;19.47;48.01;99309.75;5046837;28;20522;-69
2023/11/06 00:25:01;;;;;;;2.17;0.70;;;;;;;19.46;48.13;99318.69;5046962;28;20037;-69
2023/11/06 00:27:27;;;;;;;4.10;0.90;;;;;;;19.46;47.98;99317.88;5047039;28;20037;-69
2023/11/06 00:29:52;;;;;;;2.80;0.65;;;;;;;19.44;48.20;99319.81;5047102;28;20036;-69
2023/11/06 00:32:17;;;;;;;3.00;0.90;;;;;;;19.43;48.11;99321.66;5047025;28;20155;-69
2023/11/06 00:34:43;;;;;;;1.98;0.80;;;;;;;19.42;48.05;99332.41;5046840;28;20045;-69
2023/11/06 00:37:09;;;;;;;2.88;0.77;;;;;;;19.40;47.85;99333.38;5047201;28;20036;-69
2023/11/06 00:39:37;;;;;;;4.45;1.20;;;;;;;19.39;47.86;99328.25;5046847;28;20037;-69
2023/11/06 00:42:04;;;;;;;3.25;0.65;;;;;;;19.39;47.94;99339.66;5047050;28;20036;-68
2023/11/06 00:44:31;;;;;;;2.78;0.77;;;;;;;19.38;47.89;99335.38;5047016;28;20045;-70
2023/11/06 00:46:56;;;;;;;2.60;0.75;;;;;;;19.38;47.88;99353.88;5046159;28;20389;-69
2023/11/06 00:49:21;;;;;;;3.00;0.85;;;;;;;19.36;47.77;99347.13;5028798;28;20457;-70
2023/11/06 00:51:47;;;;;;;2.83;0.80;;;;;;;19.35;47.92;99356.84;5046650;28;20116;-69
2023/11/06 00:54:14;;;;;;;2.13;0.90;;;;;;;19.36;47.89;99355.03;5047194;28;20040;-70
2023/11/06 00:56:40;;;;;;;2.25;0.80;;;;;;;19.33;47.92;99364.13;5028645;28;20032;-70
2023/11/06 00:59:05;;;;;;;2.60;0.75;;;;;;;19.32;47.88;99351.88;5046082;28;20122;-69
2023/11/06 01:01:31;;;;;;;2.60;0.70;;;;;;;19.34;48.10;99359.66;5045999;28;20108;-69
2023/11/06 01:03:57;;;;;;;3.40;0.80;;;;;;;19.32;48.08;99365.09;5045296;28;20029;-69
2023/11/06 01:06:23;;;;;;;2.00;0.70;;;;;;;19.30;47.73;99351.25;5045696;28;20051;-69
2023/11/06 01:08:49;;;;;;;1.85;0.70;;;;;;;19.30;47.85;99359.16;5045848;28;20029;-69
2023/11/06 01:11:14;;;;;;;4.10;0.98;;;;;;;19.30;47.71;99371.56;5046394;28;20369;-70
2023/11/06 01:13:40;;;;;;;2.50;0.70;;;;;;;19.28;47.86;99368.25;5045925;28;20111;-70
2023/11/06 01:16:05;;;;;;;2.75;0.80;;;;;;;19.29;47.86;99376.00;5046212;28;20025;-69
2023/11/06 01:18:31;;;;;;;2.15;0.70;;;;;;;19.28;47.75;99376.16;5045808;28;20051;-70
2023/11/06 01:20:56;;;;;;;5.03;0.90;;;;;;;19.27;47.66;99374.53;5045382;28;20037;-69
2023/11/06 01:23:21;;;;;;;2.80;0.70;;;;;;;19.25;47.47;99373.84;5045716;28;20459;-69
2023/11/06 01:25:47;;;;;;;2.50;0.70;;;;;;;19.27;47.76;99382.47;5045398;28;20083;-70
2023/11/06 01:28:12;;;;;;;3.13;1.00;;;;;;;19.25;47.68;99393.19;5045797;28;20029;-69
2023/11/06 01:30:37;;;;;;;3.28;0.80;;;;;;;19.24;47.84;99391.53;5045333;28;20623;-69
2023/11/06 01:33:03;;;;;;;2.95;1.00;;;;;;;19.25;47.77;99397.63;5045948;28;20060;-69
2023/11/06 01:35:30;;;;;;;2.78;0.80;;;;;;;19.25;47.70;99397.63;5046118;28;20049;-69
2023/11/06 01:37:57;;;;;;;2.28;0.75;;;;;;;19.23;47.75;99404.91;5043753;28;20029;-70
2023/11/06 01:40:22;;;;;;;2.40;0.93;;;;;;;19.21;47.75;99399.78;5045612;28;20025;-69
2023/11/06 01:42:48;;;;;;;3.13;0.90;;;;;;;19.21;47.63;99402.44;5045502;28;20135;-69
2023/11/06 01:45:13;;;;;;;2.05;0.68;;;;;;;19.21;47.71;99408.53;5044531;28;20083;-69
2023/11/06 01:47:39;;;;;;;3.42;1.05;;;;;;;19.21;47.75;99420.91;5045426;28;20036;-69
2023/11/06 01:50:05;;;;;;;4.00;0.85;;;;;;;19.21;47.77;99423.56;5045451;28;20033;-69
2023/11/06 01:52:31;;;;;;;5.53;1.00;;;;;;;19.19;47.69;99422.91;5027478;28;20033;-69
2023/11/06 01:54:58;;;;;;;4.15;0.80;;;;;;;19.19;47.70;99431.63;5045288;28;20123;-70
2023/11/06 01:57:24;;;;;;;1.70;0.70;;;;;;;19.18;47.66;99435.28;5046489;28;20052;-70
2023/11/06 01:59:49;;;;;;;3.75;1.20;;;;;;;19.18;47.74;99434.44;5050016;28;20120;-71
2023/11/06 02:02:17;;;;;;;2.42;0.75;;;;;;;19.18;47.65;99435.28;5050326;28;20115;-69
2023/11/06 02:04:47;;;;;;;2.00;0.80;;;;;;;19.17;47.66;99435.47;5049547;28;20143;-69
2023/11/06 02:07:13;;;;;;;3.42;1.00;;;;;;;19.17;47.66;99440.75;5049915;28;20025;-69
2023/11/06 02:09:40;;;;;;;3.40;0.90;;;;;;;19.17;47.86;99452.13;5048921;28;20053;-69
2023/11/06 02:12:06;;;;;;;2.47;0.80;;;;;;;19.16;47.55;99452.28;5049498;28;20068;-70
2023/11/06 02:14:47;;;;;;;2.58;0.70;;;;;;;19.14;47.55;99455.09;5049245;28;21092;-70
2023/11/06 02:17:12;;;;;;;2.35;0.77;;;;;;;19.14;47.72;99460.38;5049517;28;20025;-68
2023/11/06 02:19:37;;;;;;;2.42;0.80;;;;;;;19.13;47.49;99466.63;5048984;28;20017;-70
2023/11/06 02:22:03;;;;;;;1.98;0.80;;;;;;;19.12;47.56;99470.28;5049284;28;20111;-69
2023/11/06 02:24:28;;;;;;;3.95;0.60;;;;;;;19.14;47.75;99464.84;5049127;28;20104;-70
2023/11/06 02:26:57;;;;;;;2.88;0.88;;;;;;;19.11;47.77;99473.91;5049194;28;20032;-69
2023/11/06 02:29:23;;;;;;;4.18;0.90;;;;;;;19.12;47.56;99480.84;5049335;28;20033;-69
2023/11/06 02:31:48;;;;;;;1.48;0.50;;;;;;;19.12;47.61;99491.41;5049387;28;20154;-69
2023/11/06 02:34:13;;;;;;;3.03;0.80;;;;;;;19.11;47.34;99487.09;5049275;28;20068;-69
2023/11/06 02:36:40;;;;;;;2.72;0.90;;;;;;;19.10;47.50;99484.63;5049430;28;20025;-69
2023/11/06 02:39:05;;;;;;;2.55;0.70;;;;;;;19.09;47.22;99477.69;5049461;28;20035;-70
2023/11/06 02:41:31;;;;;;;2.50;0.85;;;;;;;19.05;47.51;99484.28;5049109;28;20029;-69
2023/11/06 02:43:57;;;;;;;3.13;0.85;;;;;;;19.08;47.39;99494.53;5048989;28;20465;-69
2023/11/06 02:46:22;;;;;;;1.38;0.70;;;;;;;19.07;47.35;99487.59;5048600;28;20104;-70
2023/11/06 02:48:47;;;;;;;2.50;0.73;;;;;;;19.08;47.26;99494.53;5048673;28;20067;-70
2023/11/06 02:51:13;;;;;;;2.67;0.95;;;;;;;19.07;47.24;99501.59;5048300;28;20159;-70
2023/11/06 02:53:38;;;;;;;1.92;0.60;;;;;;;19.05;47.34;99503.59;5048706;28;20044;-69
2023/11/06 02:56:03;;;;;;;1.73;0.70;;;;;;;19.06;47.40;99501.78;5048084;28;20072;-69
2023/11/06 02:58:29;;;;;;;1.85;0.60;;;;;;;19.05;47.39;99498.31;5047991;28;20040;-69
2023/11/06 03:00:54;;;;;;;3.55;0.80;;;;;;;19.04;47.27;99512.50;5048187;28;20041;-70
2023/11/06 03:03:20;;;;;;;2.28;0.80;;;;;;;19.03;47.25;99511.69;5047999;28;20029;-69
2023/11/06 03:05:45;;;;;;;2.40;0.65;;;;;;;19.03;47.30;99511.69;5048136;28;20123;-69
2023/11/06 03:08:10;;;;;;;2.05;0.60;;;;;;;19.04;47.31;99515.13;5047362;28;20020;-69
2023/11/06 03:10:36;;;;;;;1.80;0.57;;;;;;;19.01;47.26;99521.59;5047026;28;20057;-69
2023/11/06 03:13:01;;;;;;;1.98;0.70;;;;;;;19.02;47.35;99515.28;5048239;28;20051;-70
2023/11/06 03:15:26;;;;;;;3.88;0.80;;;;;;;19.01;47.21;99520.78;5048607;28;20029;-69
2023/11/06 03:17:52;;;;;;;2.33;0.70;;;;;;;19.01;47.28;99532.16;5048424;28;20020;-69
2023/11/06 03:20:17;;;;;;;3.25;0.60;;;;;;;18.99;47.28;99528.00;5048662;28;20047;-69
2023/11/06 03:22:42;;;;;;;2.40;0.75;;;;;;;19.00;47.28;99521.75;5048362;28;20028;-69
2023/11/06 03:25:09;;;;;;;2.10;0.70;;;;;;;18.99;47.16;99530.63;5048424;28;20437;-69
2023/11/06 03:27:34;;;;;;;2.33;0.60;;;;;;;18.98;47.46;99539.56;5048287;28;20028;-70
2023/11/06 03:29:59;;;;;;;2.70;0.75;;;;;;;18.97;47.23;99540.53;5048331;28;20078;-69
2023/11/06 03:32:25;;;;;;;2.47;0.60;;;;;;;18.97;47.11;99546.66;5047745;28;20063;-69
2023/11/06 03:34:50;;;;;;;2.17;0.70;;;;;;;18.95;47.25;99543.34;5048382;28;20044;-69
2023/11/06 03:37:16;;;;;;;1.92;0.70;;;;;;;18.95;47.22;99555.72;5047679;28;20043;-71
2023/11/06 03:39:42;;;;;;;2.40;0.70;;;;;;;18.95;46.95;99558.38;5047629;28;20118;-69
2023/11/06 03:42:07;;;;;;;1.92;0.70;;;;;;;18.95;47.24;99558.38;5048338;28;20029;-70
2023/11/06 03:44:33;;;;;;;2.53;0.65;;;;;;;18.93;47.21;99561.16;5048042;28;20044;-70
2023/11/06 03:46:58;;;;;;;2.72;0.75;;;;;;;18.95;47.18;99553.09;5047382;28;20025;-69
2023/11/06 03:49:24;;;;;;;2.83;0.90;;;;;;;18.93;46.99;99562.97;5048340;28;20346;-69
2023/11/06 03:51:49;;;;;;;1.92;0.70;;;;;;;18.94;47.16;99562.00;5047647;28;20025;-69
2023/11/06 03:54:14;;;;;;;1.27;0.63;;;;;;;18.93;47.07;99573.53;5047993;28;20075;-69
2023/11/06 03:56:39;;;;;;;2.97;1.00;;;;;;;18.92;47.05;99574.53;5029736;28;20754;-69
2023/11/06 03:59:05;;;;;;;1.98;0.60;;;;;;;18.93;47.02;99576.16;5047876;28;20033;-69
2023/11/06 04:01:36;;;;;;;3.40;0.77;;;;;;;18.90;46.99;99572.06;5047242;28;20466;-69
2023/11/06 04:04:02;;;;;;;2.80;0.80;;;;;;;18.91;47.22;99584.25;5047497;28;20444;-69
2023/11/06 04:06:29;;;;;;;2.13;0.90;;;;;;;18.92;47.05;99587.72;5047594;28;20552;-69
2023/11/06 04:08:54;;;;;;;2.42;0.70;;;;;;;18.91;47.08;99581.59;5029793;28;20503;-69
2023/11/06 04:11:19;;;;;;;2.38;0.70;;;;;;;18.92;46.94;99596.47;5047664;28;20039;-69
2023/11/06 04:13:45;;;;;;;4.50;1.10;;;;;;;18.91;46.99;99588.72;5047644;28;20076;-69
2023/11/06 04:16:10;;;;;;;2.77;0.70;;;;;;;18.91;47.20;99586.06;5047015;28;20108;-70
2023/11/06 04:18:36;;;;;;;3.88;0.90;;;;;;;18.91;47.06;99594.81;5046708;28;20327;-69
2023/11/06 04:21:02;;;;;;;3.40;0.90;;;;;;;18.91;47.20;99592.16;5046074;28;20032;-69
2023/11/06 04:23:28;;;;;;;1.67;0.60;;;;;;;18.91;46.85;99599.25;5047244;28;20036;-69
2023/11/06 04:25:53;;;;;;;2.95;0.80;;;;;;;18.91;46.91;99601.91;5047433;28;20017;-69
2023/11/06 04:28:19;;;;;;;1.58;0.70;;;;;;;18.87;46.82;99604.03;5046878;28;20162;-69
2023/11/06 04:30:44;;;;;;;2.28;0.68;;;;;;;18.90;46.80;99616.94;5045682;28;20488;-69
2023/11/06 04:33:09;;;;;;;2.22;0.60;;;;;;;18.90;47.02;99616.94;5046241;28;20033;-70
2023/11/06 04:35:35;;;;;;;2.90;0.70;;;;;;;18.90;47.02;99621.34;5046553;28;20368;-69
2023/11/06 04:38:00;;;;;;;2.60;0.52;;;;;;;18.89;46.86;99623.19;5046273;28;20024;-70
2023/11/06 04:40:28;;;;;;;2.60;0.80;;;;;;;18.89;47.19;99622.38;5046397;28;20017;-69
2023/11/06 04:42:53;;;;;;;2.50;0.90;;;;;;;18.88;46.92;99623.34;5028191;28;20033;-69
2023/11/06 04:45:19;;;;;;;2.45;0.70;;;;;;;18.87;46.76;99622.53;5046401;28;20384;-69
2023/11/06 04:47:45;;;;;;;2.72;0.70;;;;;;;18.85;46.96;99621.88;5046695;28;20461;-69
2023/11/06 04:50:10;;;;;;;3.17;0.75;;;;;;;18.81;46.77;99616.03;5046693;28;20083;-69
2023/11/06 04:52:35;;;;;;;2.67;0.70;;;;;;;18.85;46.86;99638.53;5046383;28;20031;-69
2023/11/06 04:55:01;;;;;;;2.20;0.50;;;;;;;18.85;47.02;99643.81;5045878;28;20056;-69
2023/11/06 04:57:26;;;;;;;2.38;0.70;;;;;;;18.85;46.65;99643.81;5046537;28;20258;-69
2023/11/06 04:59:51;;;;;;;2.88;0.60;;;;;;;18.84;46.68;99646.59;5045864;28;20065;-68
2023/11/06 05:02:17;;;;;;;1.55;0.60;;;;;;;18.84;46.68;99652.69;5045930;28;20037;-69
2023/11/06 05:04:43;;;;;;;1.83;0.50;;;;;;;18.84;46.89;99647.41;5045720;28;20052;-71
2023/11/06 05:07:09;;;;;;;3.58;0.80;;;;;;;18.78;46.67;99645.38;5045859;28;20036;-69
2023/11/06 05:09:34;;;;;;;4.00;0.80;;;;;;;18.82;46.77;99656.47;5046058;28;20041;-69
2023/11/06 05:11:59;;;;;;;2.65;0.73;;;;;;;18.82;46.89;99659.09;5045902;28;20037;-69
2023/11/06 05:14:25;;;;;;;2.63;0.70;;;;;;;18.82;46.82;99661.75;5045770;28;20029;-70
2023/11/06 05:16:52;;;;;;;2.80;0.68;;;;;;;18.81;46.92;99652.97;5046667;28;20035;-69
2023/11/06 05:19:17;;;;;;;2.47;0.80;;;;;;;18.80;46.90;99647.84;5046276;28;20040;-69
2023/11/06 05:21:43;;;;;;;3.08;0.73;;;;;;;18.80;47.18;99651.34;5046152;28;20029;-69
2023/11/06 05:24:08;;;;;;;3.58;0.70;;;;;;;18.79;46.98;99659.41;5046070;28;20041;-69
2023/11/06 05:26:33;;;;;;;2.95;0.85;;;;;;;18.80;46.97;99659.25;5045375;28;20013;-69
2023/11/06 05:29:00;;;;;;;3.67;0.90;;;;;;;18.79;46.84;99662.88;5045035;28;20037;-69
2023/11/06 05:31:25;;;;;;;3.10;0.90;;;;;;;18.79;46.97;99665.50;5045942;28;20350;-69
2023/11/06 05:33:51;;;;;;;3.22;0.80;;;;;;;18.79;47.36;99667.34;5045508;28;20048;-69
2023/11/06 05:36:17;;;;;;;3.38;0.80;;;;;;;18.78;46.88;99669.13;5046025;28;20049;-70
2023/11/06 05:38:47;;;;;;;3.20;0.80;;;;;;;18.77;46.87;99682.47;5046039;28;20447;-69
2023/11/06 05:41:12;;;;;;;4.43;1.17;;;;;;;18.76;46.87;99665.00;5045899;28;20445;-70
2023/11/06 05:43:38;;;;;;;3.67;0.98;;;;;;;18.77;46.99;99671.91;5045558;28;20069;-69
2023/11/06 05:46:07;;;;;;;3.03;0.88;;;;;;;18.77;46.98;99671.91;5028023;28;20040;-69
2023/11/06 05:48:34;;;;;;;3.35;0.85;;;;;;;18.76;46.87;99672.94;5046002;28;20116;-69
2023/11/06 05:50:59;;;;;;;3.00;0.90;;;;;;;18.76;47.15;99665.00;5045816;28;20388;-69
2023/11/06 05:53:26;;;;;;;3.20;1.10;;;;;;;18.76;46.89;99676.38;5045805;28;20041;-69
2023/11/06 05:55:51;;;;;;;4.38;0.93;;;;;;;18.77;46.96;99685.13;5045922;28;20025;-69
2023/11/06 05:58:16;;;;;;;3.33;0.88;;;;;;;18.77;47.05;99691.25;5045715;28;20025;-69
2023/11/06 06:00:42;;;;;;;3.88;1.10;;;;;;;18.76;46.88;99688.75;5045484;28;20103;-69
2023/11/06 06:03:08;;;;;;;3.45;1.00;;;;;;;18.75;46.99;99698.47;5045506;28;20036;-69
2023/11/06 06:05:33;;;;;;;5.28;1.05;;;;;;;18.76;46.93;99713.34;5045552;28;20028;-70
2023/11/06 06:07:58;;;;;;;4.55;1.10;;;;;;;18.76;46.88;99710.69;5045231;28;20025;-69
2023/11/06 06:10:24;;;;;;;5.03;0.98;;;;;;;18.75;46.70;99701.09;5045270;28;20373;-69
2023/11/06 06:12:49;;;;;;;5.13;1.02;;;;;;;18.77;46.95;99709.72;5044716;28;20037;-69
2023/11/06 06:15:14;;;;;;;3.63;0.85;;;;;;;18.77;47.01;99722.91;5046016;28;20025;-69
2023/11/06 06:17:40;;;;;;;3.67;0.95;;;;;;;18.74;47.31;99709.19;5045632;28;20025;-70
2023/11/06 06:20:15;;;;;;;3.10;0.80;;;;;;;18.78;47.43;99716.63;5045749;28;20582;-70
2023/11/06 06:22:41;;;;;;;2.08;0.77;;;;;;;18.81;47.47;99723.44;5044880;28;20039;-69
2023/11/06 06:25:08;;;;;;;2.90;0.82;;;;;;;18.79;47.36;99722.75;5044235;28;20560;-70
2023/11/06 06:27:33;;;;;;;4.20;1.05;;;;;;;18.79;47.70;99709.56;5042727;28;20029;-69
2023/11/06 06:29:58;;;;;;;4.28;0.95;;;;;;;18.79;47.79;99705.09;5044733;28;20420;-69
2023/11/06 06:32:24;;;;;;;3.50;0.88;;;;;;;18.80;47.97;99711.19;5045061;28;20096;-69
2023/11/06 06:34:50;;;;;;;4.45;1.15;;;;;;;18.79;47.84;99707.75;5026483;28;20132;-69
2023/11/06 06:37:15;;;;;;;3.25;0.90;;;;;;;18.82;48.02;99703.97;5044891;28;20500;-68
2023/11/06 06:39:40;;;;;;;4.47;0.98;;;;;;;18.80;47.89;99713.84;5045392;28;20084;-69
2023/11/06 06:42:06;;;;;;;3.40;0.90;;;;;;;18.82;47.85;99720.63;5045024;28;20116;-69
2023/11/06 06:44:31;;;;;;;4.40;1.02;;;;;;;18.85;47.90;99725.63;5045845;28;20047;-70
2023/11/06 06:46:58;;;;;;;3.38;0.90;;;;;;;18.88;47.72;99727.13;5048746;28;20048;-69
2023/11/06 06:49:26;;;;;;;4.45;0.90;;;;;;;18.90;47.82;99729.59;5049009;28;20033;-70
2023/11/06 06:51:54;;;;;;;3.83;0.98;;;;;;;18.92;48.01;99738.22;5048957;28;20036;-70
2023/11/06 06:54:19;;;;;;;4.85;1.02;;;;;;;18.92;47.84;99744.31;5031117;28;20461;-69
2023/11/06 06:56:49;;;;;;;4.60;1.17;;;;;;;18.95;47.88;99746.63;5048475;28;20037;-70
2023/11/06 06:59:14;;;;;;;3.30;0.70;;;;;;;18.97;47.74;99743.84;5049017;28;20266;-70
2023/11/06 07:01:39;;;;;;;4.25;1.00;;;;;;;18.99;47.57;99761.19;5048333;28;20044;-69
2023/11/06 07:04:05;;;;;;;4.00;1.17;;;;;;;19.00;47.59;99756.72;5048207;28;20388;-70
2023/11/06 07:06:31;;;;;;;4.70;1.00;;;;;;;19.01;47.90;99756.56;5048169;28;20266;-68
2023/11/06 07:08:56;;;;;;;3.20;0.93;;;;;;;19.01;47.52;99769.78;5047782;28;20040;-68
2023/11/06 07:11:22;;;;;;;3.83;1.00;;;;;;;19.04;47.69;99758.06;5048657;28;20112;-69
2023/11/06 07:13:47;;;;;;;3.78;1.10;;;;;;;19.06;47.64;99776.38;5048202;28;20102;-70
2023/11/06 07:16:13;;;;;;;3.95;1.00;;;;;;;19.07;47.84;99775.41;5045406;28;20021;-69
2023/11/06 07:18:38;;;;;;;3.17;0.90;;;;;;;19.08;47.56;99777.91;5048063;28;20031;-65
2023/11/06 07:21:04;;;;;;;4.40;1.05;;;;;;;19.08;47.60;99782.34;5047760;28;20040;-71
2023/11/06 07:23:29;;;;;;;3.63;1.00;;;;;;;19.09;47.52;99789.28;5047424;28;20040;-68
2023/11/06 07:25:54;;;;;;;5.00;1.13;;;;;;;19.08;47.66;99785.81;5047345;28;20473;-70
2023/11/06 07:28:20;;;;;;;6.88;1.30;;;;;;;19.09;47.86;99795.41;5048422;28;20017;-70
2023/11/06 07:30:45;;;;;;;4.47;1.10;;;;;;;19.09;47.90;99792.78;5049610;28;20397;-66
2023/11/06 07:33:10;;;;;;;6.03;0.95;;;;;;;19.08;47.82;99793.75;5047674;28;20100;-65
2023/11/06 07:35:36;;;;;;;6.10;1.40;;;;;;;19.06;47.99;99790.44;5046853;28;20045;-66
2023/11/06 07:38:01;;;;;;;4.47;1.08;;;;;;;19.09;48.06;99800.69;5046989;28;21071;-65
2023/11/06 07:40:27;;;;;;;4.55;1.33;;;;;;;19.12;48.43;99804.81;5046165;28;20191;-66
2023/11/06 07:42:52;;;;;;;4.00;1.05;;;;;;;19.12;48.12;99800.38;5047096;28;20040;-65
2023/11/06 07:45:18;;;;;;;2.60;0.80;;;;;;;19.15;48.16;99801.84;5045000;28;20082;-65
2023/11/06 07:47:44;;;;;;;6.38;1.40;;;;;;;19.15;48.08;99794.78;5047293;28;21530;-66
2023/11/06 07:50:10;;;;;;;5.85;1.35;;;;;;;19.16;48.22;99803.53;5047830;28;20033;-64
2023/11/06 07:52:36;;;;;;;5.82;1.58;;;;;;;19.17;48.02;99807.84;5047238;28;20028;-66
2023/11/06 07:55:04;;;;;;;3.47;1.17;;;;;;;19.15;48.28;99810.63;5047512;28;20147;-66
2023/11/06 07:57:29;;;;;;;4.80;1.42;;;;;;;19.17;48.35;99815.75;5046256;28;20119;-65
2023/11/06 08:00:03;;;;;;;5.72;1.30;;;;;;;19.16;48.19;99804.34;5029746;28;20127;-65
2023/11/06 08:02:29;;;;;;;4.68;1.17;;;;;;;19.18;48.12;99812.97;5046280;28;20029;-66
2023/11/06 08:04:54;;;;;;;5.18;1.20;;;;;;;19.13;48.29;99811.75;5047088;28;20029;-66
2023/11/06 08:07:20;;;;;;;3.60;1.20;;;;;;;19.18;48.11;99826.16;5045787;28;20456;-66
2023/11/06 08:09:46;;;;;;;6.18;1.30;;;;;;;19.17;48.32;99821.84;5046882;28;20088;-65
2023/11/06 08:12:14;;;;;;;4.82;1.42;;;;;;;19.18;48.38;99820.03;5046141;28;20094;-65
2023/11/06 08:14:39;;;;;;;7.20;1.35;;;;;;;19.18;48.27;99825.31;5045585;28;20057;-64
2023/11/06 08:17:05;;;;;;;3.63;1.25;;;;;;;19.16;48.58;99827.31;5046502;28;20477;-67
2023/11/06 08:19:34;;;;;;;5.47;1.20;;;;;;;19.16;48.50;99830.75;5046562;28;20048;-68
2023/11/06 08:21:59;;;;;;;5.07;1.27;;;;;;;19.18;48.24;99835.88;5046187;28;20509;-65
2023/11/06 08:24:25;;;;;;;5.30;1.60;;;;;;;19.18;48.22;99841.16;5047040;28;20128;-68
2023/11/06 08:26:52;;;;;;;3.92;1.02;;;;;;;19.21;48.22;99852.25;5028942;28;20033;-65
2023/11/06 08:29:18;;;;;;;4.63;1.33;;;;;;;19.19;47.99;99841.00;5047018;28;20032;-65
2023/11/06 08:31:43;;;;;;;6.32;1.10;;;;;;;19.21;48.22;99849.59;5045719;28;20350;-65
2023/11/06 08:34:08;;;;;;;5.70;1.20;;;;;;;19.16;48.37;99843.97;5045972;28;20045;-65
2023/11/06 08:36:34;;;;;;;4.85;1.00;;;;;;;19.16;48.61;99843.16;5046006;28;20028;-63
2023/11/06 08:38:59;;;;;;;4.00;1.00;;;;;;;19.18;48.56;99846.44;5046442;28;20080;-65
2023/11/06 08:41:24;;;;;;;3.45;1.05;;;;;;;19.17;48.53;99858.84;5046897;28;20353;-64
2023/11/06 08:43:50;;;;;;;4.65;1.33;;;;;;;19.22;48.52;99845.16;5046546;28;20116;-64
2023/11/06 08:46:16;;;;;;;5.20;1.10;;;;;;;19.24;48.48;99856.41;5046641;28;20474;-64
2023/11/06 08:48:42;;;;;;;5.53;1.10;;;;;;;19.25;48.43;99855.44;5046249;28;20055;-66
2023/11/06 08:51:07;;;;;;;4.88;1.20;;;;;;;19.26;48.41;99848.31;5046908;28;20033;-65
2023/11/06 08:53:32;;;;;;;8.55;1.08;;;;;;;19.29;48.28;99845.38;5047067;28;20025;-65
2023/11/06 08:55:58;;;;;;;6.93;1.00;;;;;;;19.30;47.97;99855.78;5043280;28;20033;-67
2023/11/06 08:58:25;;;;;;;10.18;1.25;;;;;;;19.31;47.89;99853.94;5045632;28;20029;-64
2023/11/06 09:00:50;;;;;;;5.43;1.10;;;;;;;19.25;48.10;99863.34;5045242;28;20493;-64
2023/11/06 09:03:15;;;;;;;4.35;1.20;;;;;;;19.22;48.13;99874.22;5045454;28;20033;-64
2023/11/06 09:05:41;;;;;;;7.25;1.38;;;;;;;19.16;48.26;99866.91;5045507;28;20028;-64
2023/11/06 09:08:07;;;;;;;5.30;1.27;;;;;;;19.12;48.16;99876.13;5044721;28;20127;-63
2023/11/06 09:10:32;;;;;;;3.08;1.00;;;;;;;19.10;48.24;99872.81;5045637;28;20025;-64
2023/11/06 09:13:01;;;;;;;4.95;1.30;;;;;;;19.09;48.68;99879.06;5045430;28;20479;-65
2023/11/06 09:15:27;;;;;;;5.25;1.25;;;;;;;19.10;48.41;99888.66;5045726;28;20037;-65
2023/11/06 09:17:53;;;;;;;3.28;0.90;;;;;;;19.12;48.57;99891.97;5045728;28;20028;-65
2023/11/06 09:20:19;;;;;;;4.57;1.20;;;;;;;19.11;48.54;99890.31;5045263;28;20059;-67
2023/11/06 09:22:44;;;;;;;8.27;1.20;;;;;;;19.12;47.88;99889.31;5045295;28;20373;-66
2023/11/06 09:25:10;;;;;;;5.82;1.25;;;;;;;19.11;48.20;99887.69;5046005;28;20033;-65
2023/11/06 09:27:35;;;;;;;3.78;1.05;;;;;;;19.11;48.38;99895.59;5045463;28;20333;-65
2023/11/06 09:30:01;;;;;;;4.25;1.15;;;;;;;19.11;48.47;99900.88;5046132;28;20453;-64
2023/11/06 09:32:27;;;;;;;5.72;1.00;;;;;;;19.11;48.43;99908.81;5043172;28;20143;-63
2023/11/06 09:34:52;;;;;;;5.03;1.17;;;;;;;19.12;48.51;99906.03;5045833;28;20041;-63
2023/11/06 09:37:18;;;;;;;5.80;1.13;;;;;;;19.11;48.52;99904.34;5044528;28;20029;-64
2023/11/06 09:39:43;;;;;;;5.63;1.50;;;;;;;19.08;48.43;99903.84;5045409;28;20028;-63
2023/11/06 09:42:10;;;;;;;4.43;1.20;;;;;;;19.05;48.49;99894.41;5044112;28;20489;-64
2023/11/06 09:44:36;;;;;;;6.20;1.40;;;;;;;19.04;48.42;99903.28;5027427;28;20408;-65
2023/11/06 09:47:05;;;;;;;8.50;1.25;;;;;;;19.06;48.60;99908.41;5045687;28;20032;-64
2023/11/06 09:49:39;;;;;;;7.13;1.40;;;;;;;19.04;48.65;99911.22;5045427;28;20036;-64
2023/11/06 09:52:06;;;;;;;5.75;1.33;;;;;;;19.07;48.52;99913.53;5044593;28;20029;-64
2023/11/06 09:54:31;;;;;;;5.38;1.50;;;;;;;19.07;48.56;99900.34;5045742;28;20029;-66
2023/11/06 09:56:57;;;;;;;3.80;1.27;;;;;;;19.12;48.28;99924.50;5045515;28;20094;-67
2023/11/06 09:59:22;;;;;;;5.45;1.40;;;;;;;19.13;48.14;99920.84;5044692;28;20029;-66
2023/11/06 10:01:54;;;;;;;5.97;1.33;;;;;;;19.13;48.36;99920.03;5045166;28;20039;-64
2023/11/06 10:04:20;;;;;;;7.18;1.27;;;;;;;19.12;48.30;99924.50;5044979;28;20045;-64
2023/11/06 10:06:49;;;;;;;7.78;1.58;;;;;;;19.12;47.50;99929.78;5045305;28;20453;-64
2023/11/06 10:09:22;;;;;;;3.38;1.00;;;;;;;19.12;48.15;99932.44;5045063;28;20156;-65
2023/11/06 10:11:47;;;;;;;5.15;1.30;;;;;;;19.16;48.31;99935.59;5044978;28;20512;-63
2023/11/06 10:14:13;;;;;;;5.00;1.40;;;;;;;19.18;48.01;99941.53;5027418;28;20061;-65
2023/11/06 10:16:38;;;;;;;4.22;1.30;;;;;;;19.17;48.20;99943.34;5044467;28;20127;-64
2023/11/06 10:19:16;;;;;;;5.68;1.20;;;;;;;19.14;48.35;99943.66;5047270;28;20029;-63
2023/11/06 10:21:42;;;;;;;5.65;1.35;;;;;;;19.17;48.19;99947.81;5049025;28;20119;-63
2023/11/06 10:24:10;;;;;;;6.10;1.40;;;;;;;19.14;48.31;99942.84;5048824;28;20354;-65
2023/11/06 10:26:35;;;;;;;7.60;1.73;;;;;;;19.14;48.15;99953.41;5046031;28;20369;-64
2023/11/06 10:29:09;;;;;;;5.05;1.30;;;;;;;19.12;48.16;99950.06;5047528;28;20033;-65
2023/11/06 10:31:37;;;;;;;7.95;1.40;;;;;;;19.11;48.22;99949.25;5048725;28;20054;-66
2023/11/06 10:34:02;;;;;;;4.70;1.38;;;;;;;19.12;48.52;99952.72;5030713;28;20057;-66
2023/11/06 10:36:28;;;;;;;5.45;1.15;;;;;;;19.12;48.64;99950.06;5048848;28;20021;-67
2023/11/06 10:39:08;;;;;;;5.47;1.25;;;;;;;19.11;48.61;99966.91;5048575;28;20051;-66
2023/11/06 10:41:34;;;;;;;12.80;1.63;;;;;;;19.12;48.45;99963.28;5047668;28;20110;-65
2023/11/06 10:44:00;;;;;;;4.78;1.00;;;;;;;19.14;48.31;99963.97;5048609;28;20469;-64
2023/11/06 10:46:35;;;;;;;6.68;1.20;;;;;;;19.13;47.91;99960.47;5047728;28;20032;-65
2023/11/06 10:49:30;;;;;;;6.93;1.38;;;;;;;19.14;48.36;99967.44;5048781;28;20457;-64
2023/11/06 10:51:57;;;;;;;5.38;1.20;;;;;;;19.11;48.42;99964.28;5047619;28;20115;-65
2023/11/06 10:54:24;;;;;;;5.03;1.05;;;;;;;19.13;48.43;99967.59;5049109;28;20033;-64
2023/11/06 10:56:52;;;;;;;6.22;1.40;;;;;;;19.11;48.53;99965.09;5048331;28;20025;-62
2023/11/06 10:59:18;;;;;;;4.93;1.60;;;;;;;19.12;48.69;99966.75;5030233;28;20029;-63
2023/11/06 11:01:47;;;;;;;5.70;1.50;;;;;;;19.11;48.61;99961.63;5048594;28;20104;-64
2023/11/06 11:04:15;;;;;;;5.70;1.20;;;;;;;19.13;48.59;99962.31;5048494;28;20045;-64
2023/11/06 11:06:43;;;;;;;6.10;1.20;;;;;;;19.12;48.47;99964.13;5048133;28;20037;-64
2023/11/06 11:09:11;;;;;;;5.55;1.20;;;;;;;19.14;48.58;99962.16;5047711;28;20036;-65
2023/11/06 11:11:38;;;;;;;5.25;1.40;;;;;;;19.15;48.37;99963.81;5047515;28;20028;-65
2023/11/06 11:14:04;;;;;;;5.57;1.25;;;;;;;19.17;48.73;99953.09;5046252;28;20032;-63
2023/11/06 11:16:45;;;;;;;8.95;1.20;;;;;;;19.19;48.27;99957.22;5047731;28;20040;-62
2023/11/06 11:19:26;;;;;;;7.40;1.40;;;;;;;19.15;48.58;99953.25;5047378;28;20062;-64
2023/11/06 11:22:03;;;;;;;5.20;1.35;;;;;;;19.14;48.77;99958.69;5047234;28;20496;-65
2023/11/06 11:24:50;;;;;;;6.60;1.50;;;;;;;19.15;48.81;99961.19;5047848;28;20350;-63
2023/11/06 11:27:17;;;;;;;6.88;1.23;;;;;;;19.17;48.64;99956.56;5047801;28;20052;-66
2023/11/06 11:29:55;;;;;;;5.60;1.38;;;;;;;19.18;48.55;99968.78;5047903;28;20120;-63